sensor_id;sensor_type;location;lat;lon;timestamp;pressure;altitude;pressure_sealevel;temperature;humidity
59859;BME280;45734;53.648;9.566;2023-09-19T00:03:28;56542.19;;;-145.06;100.00
59859;BME280;45734;53.648;9.566;2023-09-19T00:08:29;56554.34;;;-145.06;100.00
59859;BME280;45734;53.648;9.566;2023-09-19T00:13:29;56534.06;;;-145.06;100.00
59859;BME280;45734;53.648;9.566;2023-09-19T00:18:30;56519.88;;;-145.06;100.00
59859;BME280;45734;53.648;9.566;2023-09-19T00:23:32;56481.38;;;-145.06;100.00
59859;BME280;45734;53.648;9.566;2023-09-19T00:28:34;56509.75;;;-145.06;100.00
59859;BME280;45734;53.648;9.566;2023-09-19T00:33:35;56538.13;;;-145.06;100.00
59859;BME280;45734;53.648;9.566;2023-09-19T00:38:36;56540.16;;;-145.06;100.00
59859;BME280;45734;53.648;9.566;2023-09-19T00:43:36;56521.91;;;-145.06;100.00
59859;BME280;45734;53.648;9.566;2023-09-19T00:48:40;56525.97;;;-145.06;100.00
59859;BME280;45734;53.648;9.566;2023-09-19T00:53:41;56493.53;;;-145.06;100.00
59859;BME280;45734;53.648;9.566;2023-09-19T00:58:47;56509.75;;;-145.06;100.00
59859;BME280;45734;53.648;9.566;2023-09-19T01:03:47;56469.22;;;-145.06;100.00
59859;BME280;45734;53.648;9.566;2023-09-19T01:08:48;56471.25;;;-145.06;100.00
59859;BME280;45734;53.648;9.566;2023-09-19T01:13:56;56499.63;;;-145.06;100.00
59859;BME280;45734;53.648;9.566;2023-09-19T01:24:41;56442.88;;;-145.06;100.00
59859;BME280;45734;53.648;9.566;2023-09-19T01:29:48;56483.41;;;-145.06;100.00
59859;BME280;45734;53.648;9.566;2023-09-19T01:34:51;56489.50;;;-145.06;100.00
59859;BME280;45734;53.648;9.566;2023-09-19T01:45:26;56467.19;;;-145.06;100.00
59859;BME280;45734;53.648;9.566;2023-09-19T01:50:42;56434.78;;;-145.06;100.00
59859;BME280;45734;53.648;9.566;2023-09-19T01:55:47;56465.16;;;-145.06;100.00
59859;BME280;45734;53.648;9.566;2023-09-19T02:00:50;56436.81;;;-145.06;100.00
59859;BME280;45734;53.648;9.566;2023-09-19T02:05:52;56418.56;;;-145.06;100.00
59859;BME280;45734;53.648;9.566;2023-09-19T02:10:53;56499.63;;;-145.06;100.00
59859;BME280;45734;53.648;9.566;2023-09-19T02:15:54;56434.78;;;-145.06;100.00
59859;BME280;45734;53.648;9.566;2023-09-19T02:20:54;56444.91;;;-145.06;100.00
59859;BME280;45734;53.648;9.566;2023-09-19T02:25:54;56416.53;;;-145.06;100.00
59859;BME280;45734;53.648;9.566;2023-09-19T02:30:55;56455.03;;;-145.06;100.00
59859;BME280;45734;53.648;9.566;2023-09-19T02:35:56;56410.47;;;-145.06;100.00
59859;BME280;45734;53.648;9.566;2023-09-19T02:41:00;56453.00;;;-145.06;100.00
59859;BME280;45734;53.648;9.566;2023-09-19T02:46:01;56420.59;;;-145.06;100.00
59859;BME280;45734;53.648;9.566;2023-09-19T02:51:03;56418.56;;;-145.06;100.00
59859;BME280;45734;53.648;9.566;2023-09-19T02:56:03;56453.00;;;-145.06;100.00
59859;BME280;45734;53.648;9.566;2023-09-19T03:01:08;56469.22;;;-145.06;100.00
59859;BME280;45734;53.648;9.566;2023-09-19T03:06:09;56457.06;;;-145.06;100.00
59859;BME280;45734;53.648;9.566;2023-09-19T03:11:10;56434.78;;;-145.06;100.00
59859;BME280;45734;53.648;9.566;2023-09-19T03:16:11;56459.09;;;-145.06;100.00
59859;BME280;45734;53.648;9.566;2023-09-19T03:21:16;56438.81;;;-145.06;100.00
59859;BME280;45734;53.648;9.566;2023-09-19T03:26:17;56438.81;;;-145.06;100.00
59859;BME280;45734;53.648;9.566;2023-09-19T03:31:17;56416.53;;;-145.06;100.00
59859;BME280;45734;53.648;9.566;2023-09-19T03:36:18;56408.44;;;-145.06;100.00
59859;BME280;45734;53.648;9.566;2023-09-19T03:41:18;56418.56;;;-145.06;100.00
59859;BME280;45734;53.648;9.566;2023-09-19T03:46:19;56416.53;;;-145.06;100.00
59859;BME280;45734;53.648;9.566;2023-09-19T03:51:20;56424.63;;;-145.06;100.00
59859;BME280;45734;53.648;9.566;2023-09-19T03:56:21;56446.94;;;-145.06;100.00
59859;BME280;45734;53.648;9.566;2023-09-19T04:01:21;56422.63;;;-145.06;100.00
59859;BME280;45734;53.648;9.566;2023-09-19T04:06:22;56428.69;;;-145.06;100.00
59859;BME280;45734;53.648;9.566;2023-09-19T04:11:22;56390.19;;;-145.06;100.00
59859;BME280;45734;53.648;9.566;2023-09-19T04:16:22;56465.16;;;-145.06;100.00
59859;BME280;45734;53.648;9.566;2023-09-19T04:21:23;56444.91;;;-145.06;100.00
59859;BME280;45734;53.648;9.566;2023-09-19T04:26:23;56396.28;;;-145.06;100.00
59859;BME280;45734;53.648;9.566;2023-09-19T04:31:25;56388.16;;;-145.06;100.00
59859;BME280;45734;53.648;9.566;2023-09-19T04:36:25;56398.28;;;-145.06;100.00
59859;BME280;45734;53.648;9.566;2023-09-19T04:41:26;56390.19;;;-145.06;100.00
59859;BME280;45734;53.648;9.566;2023-09-19T04:46:26;56406.41;;;-145.06;100.00
59859;BME280;45734;53.648;9.566;2023-09-19T04:51:27;56376.00;;;-145.06;100.00
59859;BME280;45734;53.648;9.566;2023-09-19T04:56:31;56392.22;;;-145.06;100.00
59859;BME280;45734;53.648;9.566;2023-09-19T05:01:32;56396.28;;;-145.06;100.00
59859;BME280;45734;53.648;9.566;2023-09-19T05:06:32;56367.91;;;-145.06;100.00
59859;BME280;45734;53.648;9.566;2023-09-19T05:11:33;56380.06;;;-145.06;100.00
59859;BME280;45734;53.648;9.566;2023-09-19T05:16:34;56357.78;;;-145.06;100.00
59859;BME280;45734;53.648;9.566;2023-09-19T05:21:34;56373.97;;;-145.06;100.00
59859;BME280;45734;53.648;9.566;2023-09-19T05:26:34;56392.22;;;-145.06;100.00
59859;BME280;45734;53.648;9.566;2023-09-19T05:31:35;56305.09;;;-145.06;100.00
59859;BME280;45734;53.648;9.566;2023-09-19T05:36:40;56371.94;;;-145.06;100.00
59859;BME280;45734;53.648;9.566;2023-09-19T05:41:41;56341.56;;;-145.06;100.00
59859;BME280;45734;53.648;9.566;2023-09-19T05:46:42;56440.84;;;-145.06;100.00
59859;BME280;45734;53.648;9.566;2023-09-19T05:51:42;56576.63;;;-145.06;99.53
59859;BME280;45734;53.648;9.566;2023-09-19T05:56:42;56673.91;;;-145.06;93.00
59859;BME280;45734;53.648;9.566;2023-09-19T06:01:42;56803.59;;;-145.06;87.78
59859;BME280;45734;53.648;9.566;2023-09-19T06:06:43;56935.34;;;-145.06;83.68
59859;BME280;45734;53.648;9.566;2023-09-19T06:11:43;56801.56;;;-145.06;87.47
59859;BME280;45734;53.648;9.566;2023-09-19T06:16:43;56773.19;;;-145.06;89.68
59859;BME280;45734;53.648;9.566;2023-09-19T06:21:44;56673.91;;;-145.06;94.31
59859;BME280;45734;53.648;9.566;2023-09-19T06:26:45;56617.16;;;-145.06;97.98
59859;BME280;45734;53.648;9.566;2023-09-19T06:31:45;56580.69;;;-145.06;100.00
59859;BME280;45734;53.648;9.566;2023-09-19T06:36:47;56578.66;;;-145.06;100.00
59859;BME280;45734;53.648;9.566;2023-09-19T06:41:47;56534.06;;;-145.06;100.00
59859;BME280;45734;53.648;9.566;2023-09-19T06:46:48;56550.28;;;-145.06;100.00
59859;BME280;45734;53.648;9.566;2023-09-19T06:51:54;56528.00;;;-145.06;100.00
59859;BME280;45734;53.648;9.566;2023-09-19T06:56:54;56479.34;;;-145.06;100.00
59859;BME280;45734;53.648;9.566;2023-09-19T07:01:55;56479.34;;;-145.06;100.00
59859;BME280;45734;53.648;9.566;2023-09-19T07:06:55;56505.69;;;-145.06;100.00
59859;BME280;45734;53.648;9.566;2023-09-19T07:11:55;56497.59;;;-145.06;100.00
59859;BME280;45734;53.648;9.566;2023-09-19T07:16:56;56495.56;;;-145.06;100.00
59859;BME280;45734;53.648;9.566;2023-09-19T07:21:56;56513.81;;;-145.06;100.00
59859;BME280;45734;53.648;9.566;2023-09-19T07:26:59;56485.44;;;-145.06;100.00
59859;BME280;45734;53.648;9.566;2023-09-19T07:31:59;56509.75;;;-145.06;100.00
59859;BME280;45734;53.648;9.566;2023-09-19T07:36:59;56481.38;;;-145.06;100.00
59859;BME280;45734;53.648;9.566;2023-09-19T07:42:00;56501.66;;;-145.06;100.00
59859;BME280;45734;53.648;9.566;2023-09-19T07:47:00;56501.66;;;-145.06;100.00
59859;BME280;45734;53.648;9.566;2023-09-19T07:52:03;56503.69;;;-145.06;100.00
59859;BME280;45734;53.648;9.566;2023-09-19T07:57:04;56477.31;;;-145.06;100.00
59859;BME280;45734;53.648;9.566;2023-09-19T08:02:04;56473.28;;;-145.06;100.00
59859;BME280;45734;53.648;9.566;2023-09-19T08:07:05;56534.06;;;-145.06;100.00
59859;BME280;45734;53.648;9.566;2023-09-19T08:12:07;56530.00;;;-145.06;100.00
59859;BME280;45734;53.648;9.566;2023-09-19T08:17:10;56550.28;;;-145.06;100.00
59859;BME280;45734;53.648;9.566;2023-09-19T08:22:12;56611.06;;;-145.06;100.00
59859;BME280;45734;53.648;9.566;2023-09-19T08:27:12;56546.22;;;-145.06;100.00
59859;BME280;45734;53.648;9.566;2023-09-19T08:32:12;56540.16;;;-145.06;100.00
59859;BME280;45734;53.648;9.566;2023-09-19T08:37:12;56574.59;;;-145.06;100.00
59859;BME280;45734;53.648;9.566;2023-09-19T08:42:13;56570.53;;;-145.06;100.00
59859;BME280;45734;53.648;9.566;2023-09-19T08:47:19;56532.03;;;-145.06;100.00
59859;BME280;45734;53.648;9.566;2023-09-19T08:52:30;56525.97;;;-145.06;100.00
59859;BME280;45734;53.648;9.566;2023-09-19T08:57:36;56600.94;;;-145.06;100.00
59859;BME280;45734;53.648;9.566;2023-09-19T09:02:42;56568.53;;;-145.06;100.00
59859;BME280;45734;53.648;9.566;2023-09-19T09:07:43;56582.72;;;-145.06;100.00
59859;BME280;45734;53.648;9.566;2023-09-19T09:12:44;56609.06;;;-145.06;100.00
59859;BME280;45734;53.648;9.566;2023-09-19T09:17:47;56635.41;;;-145.06;100.00
59859;BME280;45734;53.648;9.566;2023-09-19T09:22:55;56671.88;;;-145.06;96.07
59859;BME280;45734;53.648;9.566;2023-09-19T09:28:01;56718.50;;;-145.06;94.31
59859;BME280;45734;53.648;9.566;2023-09-19T09:33:19;56799.56;;;-145.06;89.86
59859;BME280;45734;53.648;9.566;2023-09-19T09:38:23;56858.31;;;-145.06;88.75
59859;BME280;45734;53.648;9.566;2023-09-19T09:43:33;56862.38;;;-145.06;87.38
59859;BME280;45734;53.648;9.566;2023-09-19T09:48:39;56886.69;;;-145.06;86.59
59859;BME280;45734;53.648;9.566;2023-09-19T09:53:39;56886.69;;;-145.06;84.94
59859;BME280;45734;53.648;9.566;2023-09-19T09:58:49;56919.13;;;-145.06;84.22
59859;BME280;45734;53.648;9.566;2023-09-19T10:03:58;56951.56;;;-145.06;82.53
59859;BME280;45734;53.648;9.566;2023-09-19T10:09:07;56943.44;;;-145.06;77.67
59859;BME280;45734;53.648;9.566;2023-09-19T10:14:15;56935.34;;;-145.06;79.86
59859;BME280;45734;53.648;9.566;2023-09-19T10:19:30;56947.50;;;-145.06;81.74
59859;BME280;45734;53.648;9.566;2023-09-19T10:24:35;56955.59;;;-145.06;79.85
59859;BME280;45734;53.648;9.566;2023-09-19T10:29:39;56988.03;;;-145.06;79.72
59859;BME280;45734;53.648;9.566;2023-09-19T10:34:39;56957.63;;;-145.06;79.90
59859;BME280;45734;53.648;9.566;2023-09-19T10:39:45;56996.13;;;-145.06;77.02
59859;BME280;45734;53.648;9.566;2023-09-19T10:44:51;56988.03;;;-145.06;79.58
59859;BME280;45734;53.648;9.566;2023-09-19T10:49:53;56965.75;;;-145.06;79.72
59859;BME280;45734;53.648;9.566;2023-09-19T10:54:56;56925.22;;;-145.06;80.35
59859;BME280;45734;53.648;9.566;2023-09-19T11:00:03;56927.22;;;-145.06;84.18
59859;BME280;45734;53.648;9.566;2023-09-19T11:05:21;57040.72;;;-145.06;80.98
59859;BME280;45734;53.648;9.566;2023-09-19T11:10:45;57136.00;;;-145.06;74.46
59859;BME280;45734;53.648;9.566;2023-09-19T11:26:41;57109.63;;;-145.06;75.37
59859;BME280;45734;53.648;9.566;2023-09-19T11:31:47;57077.22;;;-145.06;74.40
59859;BME280;45734;53.648;9.566;2023-09-19T11:36:49;56990.06;;;-145.06;80.52
59859;BME280;45734;53.648;9.566;2023-09-19T11:41:50;57058.97;;;-145.06;77.40
59859;BME280;45734;53.648;9.566;2023-09-19T11:46:56;57075.19;;;-145.06;75.82
59859;BME280;45734;53.648;9.566;2023-09-19T11:52:00;57034.66;;;-145.06;79.34
59859;BME280;45734;53.648;9.566;2023-09-19T11:57:01;57073.16;;;-145.06;75.37
59859;BME280;45734;53.648;9.566;2023-09-19T12:02:06;57103.56;;;-145.06;77.17
59859;BME280;45734;53.648;9.566;2023-09-19T12:07:13;57107.63;;;-145.06;72.72
59859;BME280;45734;53.648;9.566;2023-09-19T12:12:20;57121.81;;;-145.06;75.87
59859;BME280;45734;53.648;9.566;2023-09-19T12:17:20;57210.97;;;-145.06;70.71
59859;BME280;45734;53.648;9.566;2023-09-19T12:22:24;57166.38;;;-145.06;70.06
59859;BME280;45734;53.648;9.566;2023-09-19T12:27:25;57271.78;;;-145.06;66.67
59859;BME280;45734;53.648;9.566;2023-09-19T12:32:36;57263.69;;;-145.06;67.41
59859;BME280;45734;53.648;9.566;2023-09-19T12:37:51;57279.91;;;-145.06;68.37
59859;BME280;45734;53.648;9.566;2023-09-19T12:42:53;57344.75;;;-145.06;65.93
59859;BME280;45734;53.648;9.566;2023-09-19T12:53:27;57328.53;;;-145.06;63.23
59859;BME280;45734;53.648;9.566;2023-09-19T12:58:31;57296.09;;;-145.06;65.19
59859;BME280;45734;53.648;9.566;2023-09-19T13:03:32;57292.06;;;-145.06;65.54
59859;BME280;45734;53.648;9.566;2023-09-19T13:08:37;57312.31;;;-145.06;66.88
59859;BME280;45734;53.648;9.566;2023-09-19T13:13:44;57314.34;;;-145.06;65.17
59859;BME280;45734;53.648;9.566;2023-09-19T13:18:49;57277.88;;;-145.06;66.20
59859;BME280;45734;53.648;9.566;2023-09-19T13:23:55;57219.09;;;-145.06;68.30
59859;BME280;45734;53.648;9.566;2023-09-19T13:29:00;57215.03;;;-145.06;64.90
59859;BME280;45734;53.648;9.566;2023-09-19T13:34:01;57196.78;;;-145.06;66.72
59859;BME280;45734;53.648;9.566;2023-09-19T13:39:01;57142.06;;;-145.06;73.54
59859;BME280;45734;53.648;9.566;2023-09-19T13:44:03;57200.84;;;-145.06;72.05
59859;BME280;45734;53.648;9.566;2023-09-19T13:49:03;57166.38;;;-145.06;73.40
59859;BME280;45734;53.648;9.566;2023-09-19T13:54:03;57208.94;;;-145.06;67.82
59859;BME280;45734;53.648;9.566;2023-09-19T13:59:04;57213.00;;;-145.06;69.53
59859;BME280;45734;53.648;9.566;2023-09-19T14:04:05;57219.09;;;-145.06;69.81
59859;BME280;45734;53.648;9.566;2023-09-19T14:09:05;57249.50;;;-145.06;68.41
59859;BME280;45734;53.648;9.566;2023-09-19T14:14:07;57192.75;;;-145.06;70.77
59859;BME280;45734;53.648;9.566;2023-09-19T14:19:08;57170.44;;;-145.06;70.07
59859;BME280;45734;53.648;9.566;2023-09-19T14:24:08;57213.00;;;-145.06;72.01
59859;BME280;45734;53.648;9.566;2023-09-19T14:29:12;57127.88;;;-145.06;74.29
59859;BME280;45734;53.648;9.566;2023-09-19T14:34:13;57087.34;;;-145.06;74.25
59859;BME280;45734;53.648;9.566;2023-09-19T14:39:15;57036.69;;;-145.06;76.70
59859;BME280;45734;53.648;9.566;2023-09-19T14:44:15;57097.47;;;-145.06;74.42
59859;BME280;45734;53.648;9.566;2023-09-19T14:49:16;57050.88;;;-145.06;78.36
59859;BME280;45734;53.648;9.566;2023-09-19T14:54:17;57073.16;;;-145.06;77.35
59859;BME280;45734;53.648;9.566;2023-09-19T14:59:17;57107.63;;;-145.06;77.05
59859;BME280;45734;53.648;9.566;2023-09-19T15:04:17;57067.06;;;-145.06;79.55
59859;BME280;45734;53.648;9.566;2023-09-19T15:09:18;57034.66;;;-145.06;80.17
59859;BME280;45734;53.648;9.566;2023-09-19T15:14:19;57046.81;;;-145.06;82.19
59859;BME280;45734;53.648;9.566;2023-09-19T15:19:20;56988.03;;;-145.06;84.51
59859;BME280;45734;53.648;9.566;2023-09-19T15:24:22;56929.25;;;-145.06;85.60
59859;BME280;45734;53.648;9.566;2023-09-19T15:29:22;56959.66;;;-145.06;86.11
59859;BME280;45734;53.648;9.566;2023-09-19T15:34:23;56967.75;;;-145.06;86.58
59859;BME280;45734;53.648;9.566;2023-09-19T15:39:23;56915.06;;;-145.06;86.16
59859;BME280;45734;53.648;9.566;2023-09-19T15:44:23;56986.00;;;-145.06;86.25
59859;BME280;45734;53.648;9.566;2023-09-19T15:49:26;56929.25;;;-145.06;87.03
59859;BME280;45734;53.648;9.566;2023-09-19T15:54:27;56939.38;;;-145.06;87.03
59859;BME280;45734;53.648;9.566;2023-09-19T15:59:27;56945.47;;;-145.06;86.18
59859;BME280;45734;53.648;9.566;2023-09-19T16:04:30;56941.41;;;-145.06;85.66
59859;BME280;45734;53.648;9.566;2023-09-19T16:09:31;56977.91;;;-145.06;85.05
59859;BME280;45734;53.648;9.566;2023-09-19T16:14:31;56983.97;;;-145.06;85.07
59859;BME280;45734;53.648;9.566;2023-09-19T16:19:31;56983.97;;;-145.06;85.01
59859;BME280;45734;53.648;9.566;2023-09-19T16:24:34;56941.41;;;-145.06;86.23
59859;BME280;45734;53.648;9.566;2023-09-19T16:29:34;56973.84;;;-145.06;87.08
59859;BME280;45734;53.648;9.566;2023-09-19T16:34:34;57004.25;;;-145.06;84.35
59859;BME280;45734;53.648;9.566;2023-09-19T16:39:35;56961.69;;;-145.06;85.75
59859;BME280;45734;53.648;9.566;2023-09-19T16:44:35;56967.75;;;-145.06;85.05
59859;BME280;45734;53.648;9.566;2023-09-19T16:49:35;57002.22;;;-145.06;84.51
59859;BME280;45734;53.648;9.566;2023-09-19T16:54:35;56961.69;;;-145.06;87.03
59859;BME280;45734;53.648;9.566;2023-09-19T16:59:36;56971.81;;;-145.06;85.74
59859;BME280;45734;53.648;9.566;2023-09-19T17:04:36;56975.88;;;-145.06;87.04
59859;BME280;45734;53.648;9.566;2023-09-19T17:09:36;56975.88;;;-145.06;87.40
59859;BME280;45734;53.648;9.566;2023-09-19T17:14:36;56967.75;;;-145.06;86.95
59859;BME280;45734;53.648;9.566;2023-09-19T17:19:37;56919.13;;;-145.06;88.65
59859;BME280;45734;53.648;9.566;2023-09-19T17:24:37;56967.75;;;-145.06;88.26
59859;BME280;45734;53.648;9.566;2023-09-19T17:29:37;56923.19;;;-145.06;86.73
59859;BME280;45734;53.648;9.566;2023-09-19T17:34:38;56939.38;;;-145.06;86.86
59859;BME280;45734;53.648;9.566;2023-09-19T17:39:38;56961.69;;;-145.06;87.47
59859;BME280;45734;53.648;9.566;2023-09-19T17:44:39;56981.94;;;-145.06;86.25
59859;BME280;45734;53.648;9.566;2023-09-19T17:49:39;56939.38;;;-145.06;85.43
59859;BME280;45734;53.648;9.566;2023-09-19T17:54:40;56939.38;;;-145.06;88.23
59859;BME280;45734;53.648;9.566;2023-09-19T17:59:40;56935.34;;;-145.06;87.16
59859;BME280;45734;53.648;9.566;2023-09-19T18:04:40;56953.56;;;-145.06;87.51
59859;BME280;45734;53.648;9.566;2023-09-19T18:09:40;56975.88;;;-145.06;85.04
59859;BME280;45734;53.648;9.566;2023-09-19T18:14:41;56951.56;;;-145.06;87.59
59859;BME280;45734;53.648;9.566;2023-09-19T18:19:41;56969.78;;;-145.06;86.18
59859;BME280;45734;53.648;9.566;2023-09-19T18:24:42;56965.75;;;-145.06;86.58
59859;BME280;45734;53.648;9.566;2023-09-19T18:29:42;56996.13;;;-145.06;86.96
59859;BME280;45734;53.648;9.566;2023-09-19T18:34:45;56959.66;;;-145.06;87.16
59859;BME280;45734;53.648;9.566;2023-09-19T18:39:45;56955.59;;;-145.06;87.51
59859;BME280;45734;53.648;9.566;2023-09-19T18:44:46;56975.88;;;-145.06;86.55
59859;BME280;45734;53.648;9.566;2023-09-19T18:49:46;56979.94;;;-145.06;87.29
59859;BME280;45734;53.648;9.566;2023-09-19T18:54:48;56957.63;;;-145.06;87.05
59859;BME280;45734;53.648;9.566;2023-09-19T18:59:48;56965.75;;;-145.06;88.00
59859;BME280;45734;53.648;9.566;2023-09-19T19:04:48;57006.28;;;-145.06;87.68
59859;BME280;45734;53.648;9.566;2023-09-19T19:09:49;56955.59;;;-145.06;88.71
59859;BME280;45734;53.648;9.566;2023-09-19T19:14:49;56988.03;;;-145.06;89.19
59859;BME280;45734;53.648;9.566;2023-09-19T19:19:50;56951.56;;;-145.06;88.39
59859;BME280;45734;53.648;9.566;2023-09-19T19:24:51;56979.94;;;-145.06;90.20
59859;BME280;45734;53.648;9.566;2023-09-19T19:29:51;56915.06;;;-145.06;90.21
59859;BME280;45734;53.648;9.566;2023-09-19T19:34:52;56931.28;;;-145.06;91.06
59859;BME280;45734;53.648;9.566;2023-09-19T19:39:54;56935.34;;;-145.06;91.72
59859;BME280;45734;53.648;9.566;2023-09-19T19:44:55;56913.03;;;-145.06;92.37
59859;BME280;45734;53.648;9.566;2023-09-19T19:49:55;56927.22;;;-145.06;93.78
59859;BME280;45734;53.648;9.566;2023-09-19T19:54:58;56906.97;;;-145.06;94.17
59859;BME280;45734;53.648;9.566;2023-09-19T19:59:59;56888.72;;;-145.06;93.42
59859;BME280;45734;53.648;9.566;2023-09-19T20:05:00;56900.88;;;-145.06;93.63
59859;BME280;45734;53.648;9.566;2023-09-19T20:10:04;56915.06;;;-145.06;94.59
59859;BME280;45734;53.648;9.566;2023-09-19T20:15:06;56872.50;;;-145.06;95.57
59859;BME280;45734;53.648;9.566;2023-09-19T20:20:10;56866.44;;;-145.06;94.87
59859;BME280;45734;53.648;9.566;2023-09-19T20:25:17;56838.06;;;-145.06;96.87
59859;BME280;45734;53.648;9.566;2023-09-19T20:30:18;56836.03;;;-145.06;96.99
59859;BME280;45734;53.648;9.566;2023-09-19T20:35:19;56860.34;;;-145.06;99.66
59859;BME280;45734;53.648;9.566;2023-09-19T20:40:20;56801.56;;;-145.06;100.00
59859;BME280;45734;53.648;9.566;2023-09-19T20:45:22;56775.22;;;-145.06;100.00
59859;BME280;45734;53.648;9.566;2023-09-19T20:50:22;56752.94;;;-145.06;100.00
59859;BME280;45734;53.648;9.566;2023-09-19T20:55:23;56744.84;;;-145.06;100.00
59859;BME280;45734;53.648;9.566;2023-09-19T21:00:24;56734.69;;;-145.06;100.00
59859;BME280;45734;53.648;9.566;2023-09-19T21:05:24;56744.84;;;-145.06;100.00
59859;BME280;45734;53.648;9.566;2023-09-19T21:10:28;56738.75;;;-145.06;100.00
59859;BME280;45734;53.648;9.566;2023-09-19T21:15:29;56704.31;;;-145.06;100.00
59859;BME280;45734;53.648;9.566;2023-09-19T21:20:29;56704.31;;;-145.06;100.00
59859;BME280;45734;53.648;9.566;2023-09-19T21:25:34;56684.03;;;-145.06;100.00
59859;BME280;45734;53.648;9.566;2023-09-19T21:30:34;56724.56;;;-145.06;100.00
59859;BME280;45734;53.648;9.566;2023-09-19T21:35:43;56702.28;;;-145.06;100.00
59859;BME280;45734;53.648;9.566;2023-09-19T21:40:44;56661.75;;;-145.06;100.00
59859;BME280;45734;53.648;9.566;2023-09-19T21:45:44;56657.69;;;-145.06;100.00
59859;BME280;45734;53.648;9.566;2023-09-19T21:50:53;56653.63;;;-145.06;100.00
59859;BME280;45734;53.648;9.566;2023-09-19T21:56:01;56615.13;;;-145.06;100.00
59859;BME280;45734;53.648;9.566;2023-09-19T22:01:01;56609.06;;;-145.06;100.00
59859;BME280;45734;53.648;9.566;2023-09-19T22:06:09;56600.94;;;-145.06;100.00
59859;BME280;45734;53.648;9.566;2023-09-19T22:11:09;56590.81;;;-145.06;100.00
59859;BME280;45734;53.648;9.566;2023-09-19T22:16:12;56521.91;;;-145.06;100.00
59859;BME280;45734;53.648;9.566;2023-09-19T22:21:15;56598.91;;;-145.06;100.00
59859;BME280;45734;53.648;9.566;2023-09-19T22:26:47;56560.41;;;-145.06;100.00
59859;BME280;45734;53.648;9.566;2023-09-19T22:31:48;56558.38;;;-145.06;100.00
59859;BME280;45734;53.648;9.566;2023-09-19T22:36:48;56564.47;;;-145.06;100.00
59859;BME280;45734;53.648;9.566;2023-09-19T22:41:54;56562.44;;;-145.06;100.00
59859;BME280;45734;53.648;9.566;2023-09-19T22:47:11;56578.66;;;-145.06;100.00
59859;BME280;45734;53.648;9.566;2023-09-19T22:52:11;56546.22;;;-145.06;100.00
59859;BME280;45734;53.648;9.566;2023-09-19T22:57:14;56584.72;;;-145.06;100.00
59859;BME280;45734;53.648;9.566;2023-09-19T23:02:14;56517.84;;;-145.06;100.00
59859;BME280;45734;53.648;9.566;2023-09-19T23:07:15;56538.13;;;-145.06;100.00
59859;BME280;45734;53.648;9.566;2023-09-19T23:12:15;56544.19;;;-145.06;100.00
59859;BME280;45734;53.648;9.566;2023-09-19T23:17:19;56580.69;;;-145.06;100.00
59859;BME280;45734;53.648;9.566;2023-09-19T23:22:22;56519.88;;;-145.06;100.00
59859;BME280;45734;53.648;9.566;2023-09-19T23:27:23;56590.81;;;-145.06;100.00
59859;BME280;45734;53.648;9.566;2023-09-19T23:32:33;56602.97;;;-145.06;100.00
59859;BME280;45734;53.648;9.566;2023-09-19T23:37:33;56582.72;;;-145.06;100.00
59859;BME280;45734;53.648;9.566;2023-09-19T23:42:35;56594.88;;;-145.06;100.00
59859;BME280;45734;53.648;9.566;2023-09-19T23:47:35;56607.03;;;-145.06;100.00
59859;BME280;45734;53.648;9.566;2023-09-19T23:52:36;56590.81;;;-145.06;100.00
59859;BME280;45734;53.648;9.566;2023-09-19T23:57:36;56641.47;;;-145.06;100.00
